Time;durP1;ratioP1;P1;durP2;ratioP2;P2;SDS_P1;SDS_P2;PMS_P1;PMS_P2;Temp;Humidity;BMP_temperature;BMP_pressure;BME280_temperature;BME280_humidity;BME280_pressure;Samples;Min_cycle;Max_cycle;Signal;HPM_P1;HPM_P2
2022/01/21 00:00:23;;;;;;;7.60;2.10;;;-0.30;99.90;;;;;;2095974;28;20092;-72
2022/01/21 00:01:25;;;;;;;12.20;2.40;;;-0.30;99.90;;;;;;2086123;28;20033;-73
2022/01/21 00:02:27;;;;;;;8.55;2.33;;;-0.30;99.90;;;;;;2087749;28;20524;-73
2022/01/21 00:03:28;;;;;;;9.13;2.25;;;-0.40;99.90;;;;;;2085331;28;20837;-72
2022/01/21 00:04:31;;;;;;;9.75;2.45;;;-0.30;99.90;;;;;;2087697;28;20025;-72
2022/01/21 00:05:32;;;;;;;11.63;2.72;;;-0.40;99.90;;;;;;2085474;28;20523;-73
2022/01/21 00:06:32;;;;;;;12.48;2.60;;;-0.40;99.90;;;;;;2076745;28;20026;-72
2022/01/21 00:07:33;;;;;;;11.43;2.83;;;-0.40;99.90;;;;;;2085519;28;20527;-71
2022/01/21 00:08:35;;;;;;;10.55;2.63;;;-0.40;99.90;;;;;;2098049;28;20024;-72
2022/01/21 00:09:35;;;;;;;8.05;2.38;;;-0.40;99.90;;;;;;2093538;28;20037;-72
2022/01/21 00:10:36;;;;;;;8.75;2.22;;;-0.40;99.90;;;;;;2088843;28;20104;-72
2022/01/21 00:11:39;;;;;;;13.65;2.53;;;-0.40;99.90;;;;;;2084316;28;20021;-72
2022/01/21 00:12:40;;;;;;;8.80;2.50;;;-0.40;99.90;;;;;;2095148;28;20060;-71
2022/01/21 00:13:41;;;;;;;10.00;2.70;;;-0.40;99.90;;;;;;2092627;28;20028;-71
2022/01/21 00:14:43;;;;;;;7.00;2.35;;;-0.40;99.90;;;;;;2098325;28;20040;-72
2022/01/21 00:15:44;;;;;;;13.70;2.60;;;-0.40;99.90;;;;;;2084312;28;20033;-71
2022/01/21 00:16:45;;;;;;;12.02;2.28;;;-0.40;99.90;;;;;;2089825;28;20456;-72
2022/01/21 00:17:46;;;;;;;9.15;2.30;;;-0.40;99.90;;;;;;2093446;28;20052;-71
2022/01/21 00:18:59;;;;;;;13.02;2.53;;;-0.50;99.90;;;;;;2089297;28;20028;-71
2022/01/21 00:30:34;;;;;;;11.85;2.20;;;-0.60;99.90;;;;;;2088623;28;20025;-73
2022/01/21 00:31:35;;;;;;;9.88;2.28;;;-0.60;99.90;;;;;;2080838;28;20090;-74
2022/01/21 00:32:36;;;;;;;10.05;2.33;;;-0.60;99.90;;;;;;2089485;28;20047;-73
2022/01/21 00:33:36;;;;;;;10.18;2.50;;;-0.70;99.90;;;;;;2081596;28;20109;-74
2022/01/21 00:34:37;;;;;;;7.45;2.40;;;-0.60;99.90;;;;;;2089989;28;20029;-73
2022/01/21 00:35:38;;;;;;;11.35;2.60;;;-0.60;99.90;;;;;;2096006;28;20040;-73
2022/01/21 00:36:39;;;;;;;8.63;2.15;;;-0.60;99.90;;;;;;2089977;28;20021;-72
2022/01/21 00:37:40;;;;;;;11.38;2.40;;;-0.60;99.90;;;;;;2092081;28;20090;-73
2022/01/21 00:38:43;;;;;;;11.07;2.55;;;-0.70;99.90;;;;;;2087372;28;20085;-72
2022/01/21 00:39:50;;;;;;;12.65;2.63;;;-0.70;99.90;;;;;;2083134;28;20022;-72
2022/01/21 00:40:51;;;;;;;9.65;2.15;;;-0.60;99.90;;;;;;2094748;28;20021;-72
2022/01/21 00:41:59;;;;;;;13.63;2.40;;;-0.60;99.90;;;;;;2084366;28;20033;-72
2022/01/21 00:44:08;;;;;;;12.05;2.88;;;-0.60;99.90;;;;;;2083299;28;20022;-72
2022/01/21 00:45:14;;;;;;;9.88;2.45;;;-0.60;99.90;;;;;;2082489;28;20077;-72
2022/01/21 00:46:15;;;;;;;12.15;2.85;;;-0.50;99.90;;;;;;2096370;28;20426;-72
2022/01/21 00:47:16;;;;;;;14.73;2.67;;;-0.50;99.90;;;;;;2099115;28;20028;-72
2022/01/21 00:48:17;;;;;;;7.93;2.40;;;-0.50;99.90;;;;;;2096374;28;20017;-73
2022/01/21 00:49:18;;;;;;;9.13;2.28;;;-0.50;99.90;;;;;;2083543;28;20432;-72
2022/01/21 00:50:18;;;;;;;11.43;2.90;;;-0.50;99.90;;;;;;2089505;28;20051;-72
2022/01/21 00:51:19;;;;;;;10.20;2.53;;;-0.40;99.90;;;;;;2096147;28;20032;-72
2022/01/21 00:52:20;;;;;;;13.02;2.25;;;-0.40;99.90;;;;;;2096340;28;20024;-73
2022/01/21 00:53:21;;;;;;;6.55;2.00;;;-0.40;99.90;;;;;;2092179;28;20163;-73
2022/01/21 00:54:21;;;;;;;11.30;2.38;;;-0.50;99.90;;;;;;2085864;28;20048;-72
2022/01/21 00:55:23;;;;;;;14.25;2.55;;;-0.50;99.90;;;;;;2091029;28;20060;-71
2022/01/21 00:56:24;;;;;;;9.73;2.20;;;-0.50;99.90;;;;;;2097035;28;20078;-72
2022/01/21 00:57:25;;;;;;;9.48;2.45;;;-0.50;99.90;;;;;;2105580;28;20093;-72
2022/01/21 00:58:25;;;;;;;12.88;2.40;;;-0.50;99.90;;;;;;2105018;28;20020;-72
2022/01/21 00:59:26;;;;;;;9.63;2.50;;;-0.50;99.90;;;;;;2096237;28;20059;-72
2022/01/21 01:00:27;;;;;;;10.40;2.22;;;-0.50;99.90;;;;;;2093373;28;20028;-72
2022/01/21 01:01:27;;;;;;;10.52;2.30;;;-0.60;99.90;;;;;;2091229;28;20048;-72
2022/01/21 01:02:29;;;;;;;7.38;2.08;;;-0.60;99.90;;;;;;2086109;28;20043;-72
2022/01/21 01:03:30;;;;;;;15.38;2.72;;;-0.60;99.90;;;;;;2094966;28;20075;-72
2022/01/21 01:04:31;;;;;;;12.80;2.33;;;-0.60;99.90;;;;;;2096501;28;20435;-72
2022/01/21 01:05:32;;;;;;;9.77;2.60;;;-0.70;99.90;;;;;;2090818;28;20029;-72
2022/01/21 01:06:32;;;;;;;10.45;2.25;;;-0.70;99.90;;;;;;2105492;28;20029;-72
2022/01/21 01:07:34;;;;;;;10.93;2.20;;;-0.70;99.90;;;;;;2100639;28;20045;-71
2022/01/21 01:08:36;;;;;;;11.80;2.50;;;-0.70;99.90;;;;;;2092504;28;20097;-71
2022/01/21 01:09:37;;;;;;;5.95;2.30;;;-0.70;99.90;;;;;;2083623;28;20511;-72
2022/01/21 01:13:01;;;;;;;9.23;2.25;;;-0.70;99.90;;;;;;2097593;28;20527;-72
2022/01/21 01:20:39;;;;;;;11.68;2.40;;;-0.70;99.90;;;;;;2080684;28;20062;-72
2022/01/21 01:21:43;;;;;;;14.02;2.42;;;-0.60;99.90;;;;;;2085198;28;20451;-73
2022/01/21 01:27:39;;;;;;;13.23;2.28;;;-0.50;99.90;;;;;;2080720;28;20095;-71
2022/01/21 01:28:42;;;;;;;10.77;2.30;;;-0.50;99.90;;;;;;2087060;28;20025;-72
2022/01/21 01:29:42;;;;;;;8.93;2.00;;;-0.50;99.90;;;;;;2083909;28;20025;-72
2022/01/21 01:30:43;;;;;;;14.40;2.75;;;-0.50;99.90;;;;;;2088761;28;20052;-72
2022/01/21 01:31:44;;;;;;;11.90;2.40;;;-0.50;99.90;;;;;;2092627;28;20024;-71
2022/01/21 01:32:49;;;;;;;10.68;2.30;;;-0.50;99.90;;;;;;2088598;28;20426;-73
2022/01/21 01:33:50;;;;;;;8.35;2.45;;;-0.50;99.90;;;;;;2079674;28;20707;-71
2022/01/21 01:34:51;;;;;;;9.48;2.25;;;-0.40;99.90;;;;;;2086913;28;20028;-72
2022/01/21 01:35:52;;;;;;;12.05;2.58;;;-0.40;99.90;;;;;;2087156;28;20024;-72
2022/01/21 01:36:58;;;;;;;8.23;2.10;;;-0.40;99.90;;;;;;2080440;28;20080;-71
2022/01/21 01:39:35;;;;;;;10.15;2.20;;;-0.50;99.90;;;;;;2091703;28;20075;-72
2022/01/21 01:41:48;;;;;;;8.55;2.13;;;-0.50;99.90;;;;;;2077110;28;20511;-72
2022/01/21 01:43:08;;;;;;;8.23;2.10;;;-0.50;99.90;;;;;;2082726;28;20056;-72
2022/01/21 01:49:38;;;;;;;5.25;2.03;;;-0.50;99.90;;;;;;2080309;28;20041;-73
2022/01/21 01:50:38;;;;;;;11.70;2.38;;;-0.50;99.90;;;;;;2088352;28;20036;-71
2022/01/21 01:51:39;;;;;;;10.05;2.15;;;-0.50;99.90;;;;;;2090443;28;20033;-71
2022/01/21 01:52:40;;;;;;;8.45;2.22;;;-0.50;99.90;;;;;;2088742;28;20039;-71
2022/01/21 01:53:46;;;;;;;9.10;2.50;;;-0.50;99.90;;;;;;2079681;28;20109;-73
2022/01/21 01:54:55;;;;;;;8.88;1.90;;;-0.60;99.90;;;;;;2070026;28;20053;-72
2022/01/21 01:55:57;;;;;;;11.07;2.35;;;-0.60;99.90;;;;;;2080522;28;20028;-72
2022/01/21 01:56:58;;;;;;;10.45;2.10;;;-0.60;99.90;;;;;;2088606;28;20112;-71
2022/01/21 01:57:59;;;;;;;8.35;2.38;;;-0.60;99.90;;;;;;2075275;28;20045;-72
2022/01/21 01:59:00;;;;;;;11.27;2.63;;;-0.60;99.90;;;;;;2080191;28;20033;-72
2022/01/21 02:00:00;;;;;;;10.40;2.40;;;-0.60;99.90;;;;;;2088966;28;20549;-71
2022/01/21 02:01:01;;;;;;;10.48;2.60;;;-0.70;99.90;;;;;;2088614;28;20029;-72
2022/01/21 02:02:16;;;;;;;10.48;2.90;;;-0.60;99.90;;;;;;2080066;28;20026;-71
2022/01/21 02:03:17;;;;;;;10.32;2.75;;;-0.70;99.90;;;;;;2074172;28;20022;-71
2022/01/21 02:04:17;;;;;;;11.93;2.33;;;-0.70;99.90;;;;;;2073754;28;20072;-72
2022/01/21 02:05:18;;;;;;;4.53;2.10;;;-0.70;99.90;;;;;;2080305;28;20082;-71
2022/01/21 02:06:19;;;;;;;14.52;2.50;;;-0.70;99.90;;;;;;2088579;28;20026;-72
2022/01/21 02:07:20;;;;;;;7.35;2.13;;;-0.80;99.90;;;;;;2088954;28;20029;-72
2022/01/21 02:08:21;;;;;;;10.63;2.08;;;-0.70;99.90;;;;;;2080569;28;20187;-72
2022/01/21 02:09:22;;;;;;;8.48;2.15;;;-0.70;99.90;;;;;;2080716;28;20028;-71
2022/01/21 02:10:23;;;;;;;10.57;2.42;;;-0.70;99.90;;;;;;2090401;28;20029;-71
2022/01/21 02:11:24;;;;;;;8.75;2.58;;;-0.70;99.90;;;;;;2091075;28;20087;-73
2022/01/21 02:12:25;;;;;;;12.68;2.55;;;-0.70;99.90;;;;;;2088772;28;20454;-71
2022/01/21 02:13:30;;;;;;;10.13;2.28;;;-0.70;99.90;;;;;;2076465;28;20133;-74
2022/01/21 02:14:37;;;;;;;8.07;2.00;;;-0.70;99.90;;;;;;2072093;28;20037;-72
2022/01/21 02:15:42;;;;;;;12.00;2.60;;;-0.70;99.90;;;;;;2088880;28;20120;-70
2022/01/21 02:21:57;;;;;;;9.48;2.17;;;-0.50;99.90;;;;;;2084528;28;20037;-72
2022/01/21 02:22:57;;;;;;;12.60;1.92;;;-0.50;99.90;;;;;;2081245;28;20029;-72
2022/01/21 02:24:03;;;;;;;8.65;2.40;;;-0.50;99.90;;;;;;2068041;28;20034;-72
2022/01/21 02:25:38;;;;;;;8.63;2.38;;;-0.50;99.90;;;;;;2082457;28;20434;-72
2022/01/21 02:26:34;;;;;;;16.55;3.03;;;-0.50;99.90;;;;;;2081146;28;20033;-72
2022/01/21 02:27:35;;;;;;;8.35;2.22;;;-0.50;99.90;;;;;;2086010;28;20061;-72
2022/01/21 02:28:38;;;;;;;7.60;2.20;;;-0.50;99.90;;;;;;2089345;28;20020;-71
2022/01/21 02:29:48;;;;;;;12.10;2.72;;;-0.50;99.90;;;;;;2081435;28;20021;-72
2022/01/21 02:30:59;;;;;;;14.75;3.13;;;-0.50;99.90;;;;;;2082468;28;20427;-72
2022/01/21 02:32:01;;;;;;;13.02;3.10;;;-0.50;99.90;;;;;;2079399;28;20022;-71
2022/01/21 02:33:01;;;;;;;8.95;2.10;;;-0.50;99.90;;;;;;2089587;28;20009;-71
2022/01/21 02:34:04;;;;;;;10.65;2.35;;;-0.50;99.90;;;;;;2088986;28;20036;-71
2022/01/21 02:35:05;;;;;;;12.10;2.13;;;-0.50;99.90;;;;;;2073791;28;20022;-71
2022/01/21 02:36:06;;;;;;;11.02;2.50;;;-0.50;99.90;;;;;;2081226;28;20864;-71
2022/01/21 02:37:08;;;;;;;7.63;2.08;;;-0.50;99.90;;;;;;2081397;28;20084;-71
2022/01/21 02:38:09;;;;;;;9.93;2.30;;;-0.50;99.90;;;;;;2086055;28;20025;-71
2022/01/21 02:39:09;;;;;;;11.10;2.20;;;-0.50;99.90;;;;;;2089466;28;20021;-72
2022/01/21 02:40:11;;;;;;;8.52;2.38;;;-0.50;99.90;;;;;;2089524;28;20017;-71
2022/01/21 02:41:12;;;;;;;8.68;2.40;;;-0.50;99.90;;;;;;2089336;28;20504;-70
2022/01/21 02:42:13;;;;;;;7.53;2.45;;;-0.50;99.90;;;;;;2089182;28;20112;-71
2022/01/21 02:43:15;;;;;;;8.48;2.38;;;-0.50;99.90;;;;;;2087968;28;20013;-71
2022/01/21 02:44:18;;;;;;;9.98;2.17;;;-0.50;99.90;;;;;;2074589;28;20112;-71
2022/01/21 02:45:19;;;;;;;12.25;2.55;;;-0.50;99.90;;;;;;2081379;28;20029;-71
2022/01/21 02:46:22;;;;;;;8.30;2.30;;;-0.50;99.90;;;;;;2089371;28;20036;-72
2022/01/21 02:47:22;;;;;;;7.70;2.00;;;-0.50;99.90;;;;;;2081554;28;20021;-71
2022/01/21 02:48:28;;;;;;;13.05;2.80;;;-0.50;99.90;;;;;;2082063;28;20759;-73
2022/01/21 02:49:30;;;;;;;9.13;2.40;;;-0.50;99.90;;;;;;2089482;28;20029;-72
2022/01/21 02:50:31;;;;;;;6.53;2.17;;;-0.50;99.90;;;;;;2089471;28;20112;-71
2022/01/21 02:51:32;;;;;;;9.23;2.20;;;-0.50;99.90;;;;;;2089224;28;20451;-71
2022/01/21 02:52:41;;;;;;;7.15;2.20;;;-0.50;99.90;;;;;;2081208;28;20564;-72
2022/01/21 02:54:46;;;;;;;11.25;2.45;;;-0.50;99.90;;;;;;2082211;28;20030;-70
2022/01/21 02:55:49;;;;;;;12.90;2.63;;;-0.50;99.90;;;;;;2081128;28;20429;-72
2022/01/21 02:56:50;;;;;;;8.93;2.55;;;-0.50;99.90;;;;;;2073058;28;20081;-71
2022/01/21 02:57:51;;;;;;;8.35;2.30;;;-0.50;99.90;;;;;;2089313;28;20052;-70
2022/01/21 02:58:52;;;;;;;10.45;2.63;;;-0.50;99.90;;;;;;2097794;28;20025;-73
2022/01/21 02:59:52;;;;;;;9.00;2.40;;;-0.50;99.90;;;;;;2089470;28;20058;-72
2022/01/21 03:00:53;;;;;;;10.75;2.33;;;-0.50;99.90;;;;;;2081043;28;20037;-71
2022/01/21 03:01:54;;;;;;;12.25;2.88;;;-0.50;99.90;;;;;;2081079;28;20141;-72
2022/01/21 03:02:54;;;;;;;8.93;2.25;;;-0.60;99.90;;;;;;2089580;28;20029;-72
2022/01/21 03:03:55;;;;;;;7.72;2.60;;;-0.60;99.90;;;;;;2088988;28;20048;-72
2022/01/21 03:05:04;;;;;;;10.38;2.30;;;-0.60;99.90;;;;;;2089443;28;20021;-71
2022/01/21 03:06:05;;;;;;;10.65;2.20;;;-0.60;99.90;;;;;;2089515;28;20037;-72
2022/01/21 03:07:07;;;;;;;11.00;2.42;;;-0.60;99.90;;;;;;2089681;28;20102;-72
2022/01/21 03:08:08;;;;;;;8.35;2.50;;;-0.60;99.90;;;;;;2089482;28;20033;-72
2022/01/21 03:09:09;;;;;;;8.93;2.38;;;-0.60;99.90;;;;;;2080960;28;20583;-72
2022/01/21 03:10:11;;;;;;;9.32;2.10;;;-0.60;99.90;;;;;;2089243;28;20524;-72
2022/01/21 03:11:12;;;;;;;11.15;2.30;;;-0.60;99.90;;;;;;2081184;28;20037;-72
2022/01/21 03:12:13;;;;;;;10.82;2.78;;;-0.70;99.90;;;;;;2089001;28;20025;-72
2022/01/21 03:13:15;;;;;;;10.90;2.85;;;-0.70;99.90;;;;;;2081087;28;20037;-72
2022/01/21 03:14:16;;;;;;;11.27;2.50;;;-0.70;99.90;;;;;;2080734;28;20051;-72
2022/01/21 03:15:16;;;;;;;12.80;2.47;;;-0.70;99.90;;;;;;2081001;28;20033;-73
2022/01/21 03:16:17;;;;;;;8.32;2.40;;;-0.70;99.90;;;;;;2089404;28;20634;-73
2022/01/21 03:17:18;;;;;;;10.85;2.40;;;-0.70;99.90;;;;;;2080809;28;20037;-73
2022/01/21 03:18:20;;;;;;;8.43;2.30;;;-0.80;99.90;;;;;;2081277;28;20037;-72
2022/01/21 03:19:20;;;;;;;8.63;2.28;;;-0.80;99.90;;;;;;2081327;28;20069;-73
2022/01/21 03:20:21;;;;;;;8.60;2.50;;;-0.90;99.90;;;;;;2089478;28;20039;-72
2022/01/21 03:21:22;;;;;;;7.05;2.10;;;-0.90;99.90;;;;;;2098226;28;20029;-72
2022/01/21 03:22:22;;;;;;;8.05;2.47;;;-0.90;99.90;;;;;;2088998;28;20055;-71
2022/01/21 03:23:25;;;;;;;7.38;2.03;;;-0.90;99.90;;;;;;2088920;28;20156;-72
2022/01/21 03:24:25;;;;;;;7.47;2.45;;;-0.90;99.90;;;;;;2089377;28;20025;-72
2022/01/21 03:25:26;;;;;;;10.63;2.38;;;-0.90;99.90;;;;;;2080994;28;20081;-72
2022/01/21 03:26:28;;;;;;;10.65;2.40;;;-1.00;99.90;;;;;;2081040;28;20026;-72
2022/01/21 03:27:28;;;;;;;11.27;2.67;;;-0.90;99.90;;;;;;2089255;28;20128;-72
2022/01/21 03:28:29;;;;;;;10.77;2.40;;;-1.00;99.90;;;;;;2072880;28;20061;-72
2022/01/21 03:29:34;;;;;;;9.55;2.53;;;-1.00;99.90;;;;;;2081681;28;20035;-72
2022/01/21 03:30:36;;;;;;;10.57;2.70;;;-1.00;99.90;;;;;;2072935;28;20552;-72
2022/01/21 03:31:42;;;;;;;9.02;2.35;;;-1.00;99.90;;;;;;2081945;28;20136;-72
2022/01/21 03:32:43;;;;;;;9.35;2.30;;;-1.00;99.90;;;;;;2089242;28;20104;-72
2022/01/21 03:33:46;;;;;;;9.38;2.40;;;-1.00;99.90;;;;;;2088793;28;20033;-73
2022/01/21 03:34:47;;;;;;;10.50;2.60;;;-1.00;99.90;;;;;;2089430;28;20044;-72
2022/01/21 03:35:51;;;;;;;10.35;2.72;;;-1.00;99.90;;;;;;2081097;28;20041;-72
2022/01/21 03:36:53;;;;;;;15.65;2.80;;;-1.10;99.90;;;;;;2073481;28;20343;-72
2022/01/21 03:37:54;;;;;;;12.75;2.70;;;-1.10;99.90;;;;;;2081138;28;20033;-72
2022/01/21 03:38:55;;;;;;;15.55;3.83;;;-1.10;99.90;;;;;;2080933;28;20100;-73
2022/01/21 03:39:56;;;;;;;16.08;2.95;;;-1.10;99.90;;;;;;2072974;28;20026;-73
2022/01/21 03:40:57;;;;;;;12.68;2.63;;;-1.10;99.90;;;;;;2072808;28;20420;-73
2022/01/21 03:41:58;;;;;;;8.82;2.22;;;-1.10;99.90;;;;;;2080547;28;20041;-72
2022/01/21 03:42:59;;;;;;;11.95;2.50;;;-1.10;99.90;;;;;;2080949;28;20532;-73
2022/01/21 03:44:00;;;;;;;11.63;2.25;;;-1.20;99.90;;;;;;2088460;28;20503;-73
2022/01/21 03:45:02;;;;;;;10.82;2.30;;;-1.10;99.90;;;;;;2097426;28;20437;-73
2022/01/21 03:46:04;;;;;;;13.43;2.38;;;-1.20;99.90;;;;;;2080806;28;20543;-73
2022/01/21 03:47:05;;;;;;;8.52;2.28;;;-1.10;99.90;;;;;;2073023;28;20022;-71
2022/01/21 03:48:06;;;;;;;11.85;2.20;;;-1.10;99.90;;;;;;2072643;28;20057;-72
2022/01/21 03:49:08;;;;;;;13.10;2.90;;;-1.10;99.90;;;;;;2064676;28;20033;-72
2022/01/21 03:50:31;;;;;;;16.90;2.83;;;-1.10;99.90;;;;;;2081178;28;20112;-72
2022/01/21 03:51:31;;;;;;;10.60;2.30;;;-1.20;99.90;;;;;;2083486;28;20130;-71
2022/01/21 03:52:32;;;;;;;14.52;2.50;;;-1.20;99.90;;;;;;2080780;28;20091;-72
2022/01/21 03:53:33;;;;;;;8.00;2.22;;;-1.20;99.90;;;;;;2080335;28;20029;-72
2022/01/21 03:54:35;;;;;;;10.82;2.33;;;-1.20;99.90;;;;;;2081126;28;20028;-71
2022/01/21 03:55:37;;;;;;;10.40;2.65;;;-1.20;99.90;;;;;;2081240;28;20033;-71
2022/01/21 03:56:39;;;;;;;9.32;2.40;;;-1.20;99.90;;;;;;2081203;28;20559;-71
2022/01/21 03:57:41;;;;;;;10.88;2.58;;;-1.20;99.90;;;;;;2089731;28;20037;-71
2022/01/21 03:58:42;;;;;;;12.93;2.55;;;-1.20;99.90;;;;;;2081034;28;20033;-71
2022/01/21 03:59:45;;;;;;;11.30;2.40;;;-1.20;99.90;;;;;;2073716;28;20696;-71
2022/01/21 04:00:51;;;;;;;9.10;2.15;;;-1.20;99.90;;;;;;2089520;28;20032;-72
2022/01/21 04:01:52;;;;;;;12.35;2.38;;;-1.20;99.90;;;;;;2090163;28;20083;-71
2022/01/21 04:02:53;;;;;;;7.85;2.20;;;-1.20;99.90;;;;;;2091417;28;20037;-71
2022/01/21 04:03:57;;;;;;;9.32;2.55;;;-1.20;99.90;;;;;;2084585;28;20025;-72
2022/01/21 04:04:58;;;;;;;6.75;2.30;;;-1.20;99.90;;;;;;2075728;28;20116;-72
2022/01/21 04:05:59;;;;;;;8.40;2.22;;;-1.20;99.90;;;;;;2085901;28;20388;-72
2022/01/21 04:07:00;;;;;;;12.13;2.28;;;-1.20;99.90;;;;;;2102951;28;20028;-72
2022/01/21 04:08:04;;;;;;;11.73;2.20;;;-1.20;99.90;;;;;;2095691;28;20025;-72
2022/01/21 04:09:05;;;;;;;14.55;2.42;;;-1.20;99.90;;;;;;2095640;28;20041;-71
2022/01/21 04:10:07;;;;;;;13.27;2.50;;;-1.20;99.90;;;;;;2087338;28;20025;-73
2022/01/21 04:11:07;;;;;;;9.73;2.03;;;-1.20;99.90;;;;;;2078600;28;20030;-72
2022/01/21 04:12:12;;;;;;;13.18;2.50;;;-1.20;99.90;;;;;;2072399;28;20045;-72
2022/01/21 04:13:17;;;;;;;12.13;2.25;;;-1.20;99.90;;;;;;2078101;28;20041;-72
2022/01/21 04:14:19;;;;;;;10.57;2.03;;;-1.20;99.90;;;;;;2086210;28;20026;-72
2022/01/21 04:15:20;;;;;;;9.43;1.98;;;-1.30;99.90;;;;;;2086177;28;20044;-72
2022/01/21 04:16:21;;;;;;;12.45;2.55;;;-1.20;99.90;;;;;;2086001;28;20044;-72
2022/01/21 04:17:23;;;;;;;11.27;2.38;;;-1.20;99.90;;;;;;2085523;28;20029;-72
2022/01/21 04:18:24;;;;;;;14.52;2.50;;;-1.20;99.90;;;;;;2078523;28;20022;-72
2022/01/21 04:19:30;;;;;;;8.40;2.30;;;-1.20;99.90;;;;;;2078609;28;20389;-72
2022/01/21 04:20:31;;;;;;;11.40;2.28;;;-1.20;99.90;;;;;;2086554;28;20044;-72
2022/01/21 04:21:32;;;;;;;7.40;2.50;;;-1.20;99.90;;;;;;2082372;28;20733;-73
2022/01/21 04:22:35;;;;;;;8.77;2.10;;;-1.20;99.90;;;;;;2073457;28;20429;-72
2022/01/21 04:23:35;;;;;;;5.55;1.98;;;-1.20;99.90;;;;;;2081231;28;20057;-73
2022/01/21 04:24:38;;;;;;;6.68;1.83;;;-1.20;99.90;;;;;;2089465;28;20032;-72
2022/01/21 04:25:40;;;;;;;12.30;3.10;;;-1.30;99.90;;;;;;2089669;28;20467;-73
2022/01/21 04:26:40;;;;;;;11.15;2.40;;;-1.20;99.90;;;;;;2081328;28;20021;-72
2022/01/21 04:27:44;;;;;;;11.65;2.17;;;-1.30;99.90;;;;;;2073819;28;20721;-73
2022/01/21 04:28:45;;;;;;;12.65;2.47;;;-1.20;99.90;;;;;;2089909;28;20028;-73
2022/01/21 04:29:46;;;;;;;10.38;2.38;;;-1.20;99.90;;;;;;2081969;28;20032;-73
2022/01/21 04:30:51;;;;;;;7.70;2.17;;;-1.30;99.90;;;;;;2082201;28;20021;-72
2022/01/21 04:31:58;;;;;;;11.13;2.22;;;-1.30;99.90;;;;;;2081820;28;20152;-73
2022/01/21 04:33:04;;;;;;;7.68;2.28;;;-1.30;99.90;;;;;;2084247;28;20033;-72
2022/01/21 04:34:05;;;;;;;10.70;2.50;;;-1.30;99.90;;;;;;2089609;28;20021;-73
2022/01/21 04:35:07;;;;;;;9.38;2.33;;;-1.30;99.90;;;;;;2082049;28;20370;-73
2022/01/21 04:36:08;;;;;;;8.07;2.05;;;-1.30;99.90;;;;;;2081917;28;20067;-73
2022/01/21 04:37:12;;;;;;;14.57;2.30;;;-1.30;99.90;;;;;;2084230;28;20043;-73
2022/01/21 04:38:34;;;;;;;9.73;2.13;;;-1.40;99.90;;;;;;2084012;28;20041;-73
2022/01/21 04:39:40;;;;;;;15.18;2.22;;;-1.30;99.90;;;;;;2089274;28;20021;-72
2022/01/21 04:40:52;;;;;;;12.00;2.40;;;-1.30;99.90;;;;;;2090105;28;20097;-73
2022/01/21 04:48:18;;;;;;;11.07;2.55;;;-1.30;99.90;;;;;;2089460;28;20483;-72
2022/01/21 04:49:19;;;;;;;10.73;2.50;;;-1.30;99.90;;;;;;2088756;28;20155;-72
2022/01/21 04:50:20;;;;;;;10.63;2.10;;;-1.30;99.90;;;;;;2080440;28;20040;-72
2022/01/21 04:51:29;;;;;;;6.35;2.00;;;-1.30;99.90;;;;;;2088360;28;20115;-72
2022/01/21 04:52:31;;;;;;;11.80;2.30;;;-1.30;99.90;;;;;;2089253;28;20094;-72
2022/01/21 04:54:04;;;;;;;10.90;2.60;;;-1.30;99.90;;;;;;2096668;28;20376;-72
2022/01/21 04:55:07;;;;;;;10.25;2.03;;;-1.30;99.90;;;;;;2088527;28;20112;-72
2022/01/21 04:56:11;;;;;;;10.48;2.40;;;-1.30;99.90;;;;;;2089275;28;20033;-72
2022/01/21 04:57:12;;;;;;;14.80;2.50;;;-1.30;99.90;;;;;;2088554;28;20029;-71
2022/01/21 04:58:14;;;;;;;10.00;2.45;;;-1.20;99.90;;;;;;2080284;28;20033;-72
2022/01/21 04:59:21;;;;;;;8.63;2.67;;;-1.20;99.90;;;;;;2081381;28;20033;-72
2022/01/21 05:00:22;;;;;;;9.02;2.28;;;-1.30;99.90;;;;;;2088720;28;20512;-72
2022/01/21 05:01:23;;;;;;;10.82;2.70;;;-1.30;99.90;;;;;;2096852;28;20032;-72
2022/01/21 05:02:26;;;;;;;10.77;2.60;;;-1.30;99.90;;;;;;2088848;28;20032;-72
2022/01/21 05:03:27;;;;;;;7.65;2.45;;;-1.30;99.90;;;;;;2088396;28;20175;-72
2022/01/21 05:04:28;;;;;;;9.80;2.88;;;-1.30;99.90;;;;;;2080373;28;20072;-72
2022/01/21 05:05:29;;;;;;;11.50;2.60;;;-1.30;99.90;;;;;;2080288;28;20037;-72
2022/01/21 05:06:30;;;;;;;10.15;2.50;;;-1.30;99.90;;;;;;2088348;28;20021;-72
2022/01/21 05:07:35;;;;;;;11.77;2.67;;;-1.30;99.90;;;;;;2088499;28;20553;-72
2022/01/21 05:08:45;;;;;;;9.75;2.78;;;-1.30;99.90;;;;;;2088508;28;20072;-72
2022/01/21 05:09:45;;;;;;;8.30;2.75;;;-1.30;99.90;;;;;;2081439;28;20033;-72
2022/01/21 05:10:47;;;;;;;10.45;2.55;;;-1.30;99.90;;;;;;2079617;28;20033;-72
2022/01/21 05:11:51;;;;;;;14.35;2.58;;;-1.30;99.90;;;;;;2080016;28;20044;-72
2022/01/21 05:12:53;;;;;;;14.05;2.55;;;-1.30;99.90;;;;;;2080961;28;20040;-72
2022/01/21 05:14:09;;;;;;;9.27;2.42;;;-1.40;99.90;;;;;;2080173;28;20025;-72
2022/01/21 05:15:24;;;;;;;9.20;2.20;;;-1.40;99.90;;;;;;2080278;28;20028;-72
2022/01/21 05:17:10;;;;;;;11.68;2.85;;;-1.40;99.90;;;;;;2076087;28;20060;-73
2022/01/21 05:17:49;;;;;;;10.05;2.47;;;-1.40;99.90;;;;;;2080401;28;20049;-72
2022/01/21 05:19:01;;;;;;;11.45;2.80;;;-1.40;99.90;;;;;;2081459;28;20420;-72
2022/01/21 05:20:17;;;;;;;9.43;2.70;;;-1.50;99.90;;;;;;2082846;28;20049;-72
2022/01/21 05:21:23;;;;;;;11.18;2.40;;;-1.40;99.90;;;;;;2080279;28;20040;-72
2022/01/21 05:22:46;;;;;;;14.05;2.67;;;-1.40;99.90;;;;;;2079509;28;20020;-72
2022/01/21 05:23:47;;;;;;;12.07;2.80;;;-1.40;99.90;;;;;;2088195;28;20357;-72
2022/01/21 05:24:49;;;;;;;10.38;2.53;;;-1.40;99.90;;;;;;2088899;28;20111;-72
2022/01/21 05:25:50;;;;;;;9.93;2.40;;;-1.40;99.90;;;;;;2072494;28;20176;-71
2022/01/21 05:26:57;;;;;;;11.73;2.55;;;-1.40;99.90;;;;;;2072493;28;20117;-73
2022/01/21 05:28:05;;;;;;;12.15;2.60;;;-1.40;99.90;;;;;;2082202;28;20028;-72
2022/01/21 05:29:13;;;;;;;9.60;2.40;;;-1.40;99.90;;;;;;2089757;28;20048;-72
2022/01/21 05:30:27;;;;;;;10.82;2.70;;;-1.50;99.90;;;;;;2089008;28;20025;-72
2022/01/21 05:31:42;;;;;;;12.52;2.58;;;-1.50;99.90;;;;;;2082317;28;20116;-72
2022/01/21 05:32:57;;;;;;;13.23;2.58;;;-1.50;99.90;;;;;;2092171;28;20033;-72
2022/01/21 05:34:16;;;;;;;12.77;2.55;;;-1.50;99.90;;;;;;2097532;28;20143;-72
2022/01/21 05:35:36;;;;;;;10.05;2.50;;;-1.50;99.90;;;;;;2088648;28;20082;-72
2022/01/21 05:36:51;;;;;;;10.90;2.55;;;-1.50;99.90;;;;;;2074439;28;20855;-72
2022/01/21 05:37:57;;;;;;;11.35;2.17;;;-1.50;99.90;;;;;;2075927;28;20057;-72
2022/01/21 05:39:18;;;;;;;13.65;2.75;;;-1.50;99.90;;;;;;2083457;28;20069;-73
2022/01/21 05:40:26;;;;;;;12.13;2.22;;;-1.50;99.90;;;;;;2084511;28;20128;-71
2022/01/21 05:41:38;;;;;;;12.95;2.53;;;-1.50;99.90;;;;;;2081340;28;20148;-72
2022/01/21 05:43:10;;;;;;;13.90;2.72;;;-1.60;99.90;;;;;;2068047;28;20515;-73
2022/01/21 05:47:21;;;;;;;13.77;2.63;;;-1.50;99.90;;;;;;2084683;28;20647;-72
2022/01/21 05:48:36;;;;;;;17.02;2.80;;;-1.50;99.90;;;;;;2082297;28;20030;-71
2022/01/21 05:50:00;;;;;;;12.43;2.50;;;-1.50;99.90;;;;;;2091677;28;20472;-72
2022/01/21 05:51:16;;;;;;;10.57;2.60;;;-1.50;99.90;;;;;;2097503;28;20035;-72
2022/01/21 05:52:47;;;;;;;11.55;3.10;;;-1.50;99.90;;;;;;2083538;28;20029;-73
2022/01/21 05:53:55;;;;;;;8.38;2.53;;;-1.50;99.90;;;;;;2087611;28;20542;-73
2022/01/21 05:55:22;;;;;;;10.93;2.78;;;-1.60;99.90;;;;;;2091109;28;20033;-75
2022/01/21 05:56:41;;;;;;;10.30;2.63;;;-1.60;99.90;;;;;;2097448;28;20044;-72
2022/01/21 05:58:05;;;;;;;13.60;2.90;;;-1.50;99.90;;;;;;2088737;28;20064;-72
2022/01/21 05:59:07;;;;;;;14.30;3.58;;;-1.60;99.90;;;;;;2088409;28;20025;-71
2022/01/21 06:00:09;;;;;;;13.10;2.92;;;-1.50;99.90;;;;;;2080388;28;20053;-73
2022/01/21 06:01:20;;;;;;;14.75;3.00;;;-1.60;99.90;;;;;;2089979;28;20103;-73
2022/01/21 06:02:20;;;;;;;13.95;3.33;;;-1.60;99.90;;;;;;2088231;28;20475;-73
2022/01/21 06:03:22;;;;;;;10.63;3.08;;;-1.60;99.90;;;;;;2079476;28;20068;-74
2022/01/21 06:04:27;;;;;;;13.02;3.38;;;-1.60;99.90;;;;;;2072704;28;20076;-72
2022/01/21 06:05:31;;;;;;;12.63;3.25;;;-1.60;99.90;;;;;;2064195;28;20030;-71
2022/01/21 06:06:31;;;;;;;10.02;2.70;;;-1.60;99.90;;;;;;2072848;28;20465;-72
2022/01/21 06:07:33;;;;;;;15.38;3.00;;;-1.60;99.90;;;;;;2079860;28;20087;-72
2022/01/21 06:08:34;;;;;;;11.15;3.00;;;-1.60;99.90;;;;;;2080022;28;20021;-71
2022/01/21 06:09:37;;;;;;;12.82;3.08;;;-1.60;99.90;;;;;;2080005;28;20030;-73
2022/01/21 06:10:37;;;;;;;13.52;3.10;;;-1.70;99.90;;;;;;2088561;28;20420;-72
2022/01/21 06:11:38;;;;;;;17.35;3.30;;;-1.60;99.90;;;;;;2097096;28;20064;-72
2022/01/21 06:12:39;;;;;;;13.10;3.20;;;-1.60;99.90;;;;;;2097454;28;20067;-72
2022/01/21 06:13:40;;;;;;;10.18;2.83;;;-1.60;99.90;;;;;;2097195;28;20035;-72
2022/01/21 06:14:40;;;;;;;14.57;3.10;;;-1.60;99.90;;;;;;2088691;28;20040;-73
2022/01/21 06:15:41;;;;;;;8.48;2.75;;;-1.70;99.90;;;;;;2080051;28;20188;-73
2022/01/21 06:16:42;;;;;;;11.13;2.90;;;-1.70;99.90;;;;;;2088893;28;20106;-73
2022/01/21 06:17:42;;;;;;;12.20;2.90;;;-1.70;99.90;;;;;;2097188;28;20029;-73
2022/01/21 06:18:44;;;;;;;15.15;2.65;;;-1.70;99.90;;;;;;2097049;28;20033;-73